Jasper, MO (64755)

4:01 AM CDT on July 25, 2016 (GMT -0500)
MOComAgNet | | Change Station

Elev 989 ft 37.49 °N, 94.31 °W | Updated 31 minutes ago

Clear
Clear
80 °F
Feels Like 84 °F
N
0
Wind Variable Wind from South
Gusts 0.0 mph

Today
High -- | Low -- °F
--% Chance of Precip.
Yesterday
High -- | Low -- °F
Precip. -- in
Pressure 29.93 in
Visibility 10.0 miles
Clouds Clear
Heat Index 84 °F
Dew Point 73 °F
Humidity 80%
Rainfall in
Snow Depth Not available.
6:16 AM 8:30 PM
Waning Gibbous, 68% visible
METAR KJLN 250853Z AUTO 18006KT 10SM CLR 27/22 A2997 RMK AO2 SLP135 T02670222 53001
Pressure 29.93 in
Visibility 10.0 miles
Clouds Clear
Heat Index 84 °F
Dew Point 73 °F
Humidity 80%
Rainfall in
Snow Depth Not available.
6:16 AM 8:30 PM
Waning Gibbous, 68% visible
METAR KJLN 250853Z AUTO 18006KT 10SM CLR 27/22 A2997 RMK AO2 SLP135 T02670222 53001

10-Day Weather Forecast

Almanac

Astronomy

Jul. 25, 2016 Rise Set
Actual Time
Civil Twilight
Nautical Twilight
Astronomical Twilight
Moon
Length of Visible Light
Length of Day
Tomorrow will be .
, % of the Moon is Illuminated

Today's Extremes

State Highs State Lows

Community

WunderPhotos

Upload Photos

1,927,274 photos uploaded!

WunderBlog® & News

Nearby

Air Quality

  Air Quality AQ Index Pollutant
Not available.

Snow Depth

Station Depth Elevation

Earthquake Activity

City Distance Mag. Time & Date
Minimum magnitude displayed is 2.5.

Coastal Water Temperatures

Place Temperature

Stations

Nearby Weather Stations

Station Location Temp. Windchill Dew Point Humidity Wind Precip. Elev Updated Type
                   

Watches & Warnings

There are currently no watches in effect.